createdAt,value
2019-05-06T00:00:33.953Z,1.20
2019-05-06T00:03:05.239Z,1.10
2019-05-06T00:05:35.809Z,1.40
2019-05-06T00:08:06.237Z,1.20
2019-05-06T00:10:40.237Z,1.17
2019-05-06T00:13:10.041Z,1.43
2019-05-06T00:15:40.649Z,1.50
2019-05-06T00:18:13.704Z,1.20
2019-05-06T00:20:45.753Z,1.10
2019-05-06T00:23:24.961Z,1.17
2019-05-06T00:26:14.089Z,1.40
2019-05-06T00:28:50.833Z,1.30
2019-05-06T00:31:21.277Z,1.30
2019-05-06T00:33:53.833Z,1.30
2019-05-06T00:36:24.757Z,1.33
2019-05-06T00:38:58.166Z,1.30
2019-05-06T00:41:35.889Z,1.50
2019-05-06T00:44:05.789Z,1.40
2019-05-06T00:46:37.906Z,1.60
2019-05-06T00:49:08.381Z,1.40
2019-05-06T00:51:39.713Z,1.43
2019-05-06T00:54:16.017Z,1.37
2019-05-06T00:56:48.373Z,1.40
2019-05-06T00:59:18.392Z,1.40
2019-05-06T01:01:48.793Z,1.30
2019-05-06T01:04:24.374Z,1.60
2019-05-06T01:06:54.287Z,1.60
2019-05-06T01:09:26.813Z,1.87
2019-05-06T01:12:00.185Z,1.50
2019-05-06T01:14:36.034Z,1.47
2019-05-06T01:17:07.545Z,1.57
2019-05-06T01:19:37.914Z,1.63
2019-05-06T01:22:07.817Z,1.70
2019-05-06T01:24:39.039Z,1.30
2019-05-06T01:27:11.821Z,1.20
2019-05-06T01:29:46.343Z,1.60
2019-05-06T01:32:17.337Z,1.70
2019-05-06T01:34:48.537Z,1.70
2019-05-06T01:37:18.941Z,1.67
2019-05-06T01:40:06.488Z,1.40
2019-05-06T01:42:41.183Z,1.40
2019-05-06T01:45:11.797Z,1.50
2019-05-06T01:47:43.789Z,1.50
2019-05-06T01:50:15.217Z,1.37
2019-05-06T01:52:45.681Z,1.50
2019-05-06T01:55:16.693Z,1.63
2019-05-06T01:57:48.797Z,1.43
2019-05-06T02:00:19.125Z,1.93
2019-05-06T02:02:50.582Z,1.40
2019-05-06T02:05:21.591Z,1.47
2019-05-06T02:07:52.093Z,1.80
2019-05-06T02:10:23.856Z,1.37
2019-05-06T02:12:55.291Z,1.60
2019-05-06T02:15:26.267Z,1.67
2019-05-06T02:17:56.269Z,1.50
2019-05-06T02:20:26.161Z,1.60
2019-05-06T02:23:04.191Z,1.40
2019-05-06T02:25:50.323Z,1.50
2019-05-06T02:28:23.488Z,1.60
2019-05-06T02:31:15.444Z,1.53
2019-05-06T02:34:07.370Z,1.73
2019-05-06T02:36:47.769Z,1.40
2019-05-06T02:39:18.280Z,1.50
2019-05-06T02:41:49.754Z,1.60
2019-05-06T02:44:23.568Z,1.40
2019-05-06T02:46:57.845Z,1.67
2019-05-06T02:49:44.203Z,1.73
2019-05-06T02:52:14.938Z,1.50
2019-05-06T02:54:45.494Z,1.50
2019-05-06T02:57:19.269Z,1.50
2019-05-06T02:59:50.625Z,1.40
2019-05-06T03:02:35.634Z,1.70
2019-05-06T03:04:53.161Z,1.90
2019-05-06T03:07:23.640Z,1.40
2019-05-06T03:09:54.211Z,1.90
2019-05-06T03:12:24.674Z,1.60
2019-05-06T03:14:55.126Z,1.40
2019-05-06T03:17:25.462Z,1.63
2019-05-06T03:19:57.266Z,2.10
2019-05-06T03:22:45.354Z,1.60
2019-05-06T03:25:28.622Z,2.07
2019-05-06T03:27:58.594Z,1.77
2019-05-06T03:30:29.770Z,1.70
2019-05-06T03:33:30.903Z,1.70
2019-05-06T03:35:44.252Z,1.90
2019-05-06T03:38:05.345Z,2.17
2019-05-06T03:40:36.691Z,1.80
2019-05-06T03:43:07.881Z,2.27
2019-05-06T03:45:48.552Z,2.13
2019-05-06T03:48:24.103Z,1.80
2019-05-06T03:50:55.998Z,2.20
2019-05-06T03:53:33.363Z,2.20
2019-05-06T03:56:03.401Z,2.40
2019-05-06T03:58:36.478Z,1.70
2019-05-06T04:01:19.118Z,2.07
2019-05-06T04:03:53.742Z,1.97
2019-05-06T04:06:24.160Z,1.93
2019-05-06T04:08:55.961Z,2.67
2019-05-06T04:11:27.123Z,2.50
2019-05-06T04:13:57.637Z,2.40
2019-05-06T04:16:56.185Z,1.83
2019-05-06T04:19:33.642Z,2.43
2019-05-06T04:22:25.077Z,2.30
2019-05-06T04:25:08.860Z,1.83
2019-05-06T04:27:44.714Z,2.77
2019-05-06T04:30:16.165Z,2.80
2019-05-06T04:32:46.639Z,2.93
2019-05-06T04:35:16.536Z,2.37
2019-05-06T04:37:46.974Z,2.60
2019-05-06T04:40:19.546Z,2.80
2019-05-06T04:42:52.515Z,2.67
2019-05-06T04:45:23.609Z,2.67
2019-05-06T04:47:54.933Z,2.83
2019-05-06T04:50:25.192Z,2.47
2019-05-06T04:53:05.271Z,2.33
2019-05-06T04:55:37.110Z,2.10
2019-05-06T04:58:08.858Z,2.33
2019-05-06T05:00:44.501Z,2.33
2019-05-06T05:03:16.281Z,2.40
2019-05-06T05:05:48.757Z,2.23
2019-05-06T05:08:24.675Z,2.50
2019-05-06T05:11:06.663Z,2.60
2019-05-06T05:13:54.270Z,2.13
2019-05-06T05:16:39.355Z,2.30
2019-05-06T05:19:12.186Z,2.07
2019-05-06T05:21:42.937Z,2.20
2019-05-06T05:24:13.553Z,2.23
2019-05-06T05:26:47.051Z,2.50
2019-05-06T05:29:16.853Z,2.23
2019-05-06T05:31:47.797Z,2.37
2019-05-06T05:34:17.948Z,2.40
2019-05-06T05:36:48.741Z,2.70
2019-05-06T05:39:19.253Z,2.40
2019-05-06T05:41:49.681Z,4.13
2019-05-06T05:44:23.959Z,2.50
2019-05-06T05:46:54.525Z,2.20
2019-05-06T05:49:43.429Z,3.07
2019-05-06T05:52:14.395Z,2.30
2019-05-06T05:54:45.366Z,2.57
2019-05-06T05:57:15.925Z,2.20
2019-05-06T05:59:48.868Z,2.73
2019-05-06T06:02:19.210Z,2.20
2019-05-06T06:04:54.837Z,2.20
2019-05-06T06:07:23.041Z,2.30
2019-05-06T06:10:02.661Z,3.23
2019-05-06T06:12:33.545Z,2.47
2019-05-06T06:15:22.909Z,2.20
2019-05-06T06:18:14.217Z,2.10
2019-05-06T06:21:17.568Z,2.33
2019-05-06T06:23:41.983Z,2.23
2019-05-06T06:26:12.441Z,2.13
2019-05-06T06:28:44.862Z,2.83
2019-05-06T06:31:33.114Z,2.30
2019-05-06T06:34:12.965Z,2.40
2019-05-06T06:36:52.732Z,1.73
2019-05-06T06:39:32.548Z,2.27
2019-05-06T06:42:02.818Z,2.33
2019-05-06T06:44:34.521Z,1.83
2019-05-06T06:47:04.990Z,2.10
2019-05-06T06:49:36.277Z,2.30
2019-05-06T06:52:11.272Z,2.30
2019-05-06T06:54:39.990Z,2.27
2019-05-06T06:57:35.761Z,2.67
2019-05-06T07:00:33.597Z,2.60
2019-05-06T07:03:19.006Z,2.10
2019-05-06T07:05:54.717Z,3.23
2019-05-06T07:08:34.922Z,2.40
2019-05-06T07:11:08.365Z,2.10
2019-05-06T07:13:41.985Z,2.30
2019-05-06T07:16:14.615Z,1.93
2019-05-06T07:18:45.009Z,2.27
2019-05-06T07:21:26.434Z,2.33
2019-05-06T07:23:59.097Z,2.03
2019-05-06T07:26:32.385Z,2.67
2019-05-06T07:29:03.977Z,2.03
2019-05-06T07:31:35.837Z,2.00
2019-05-06T07:34:06.193Z,1.90
2019-05-06T07:36:38.057Z,1.77
2019-05-06T07:39:17.967Z,2.00
2019-05-06T07:41:55.827Z,1.90
2019-05-06T07:44:34.050Z,1.87
2019-05-06T07:47:33.152Z,1.40
2019-05-06T07:50:06.269Z,1.80
2019-05-06T07:52:37.301Z,1.70
2019-05-06T07:55:07.992Z,2.93
2019-05-06T07:57:39.560Z,1.93
2019-05-06T08:00:09.665Z,2.07
2019-05-06T08:02:40.122Z,1.87
2019-05-06T08:05:12.723Z,2.00
2019-05-06T08:07:44.786Z,1.87
2019-05-06T08:10:16.337Z,2.03
2019-05-06T08:12:46.225Z,1.97
2019-05-06T08:15:16.677Z,1.80
2019-05-06T08:17:47.705Z,1.70
2019-05-06T08:20:18.497Z,1.80
2019-05-06T08:23:08.655Z,1.97
2019-05-06T08:25:54.340Z,2.00
2019-05-06T08:28:37.463Z,2.00
2019-05-06T08:30:57.949Z,1.83
2019-05-06T08:33:28.437Z,1.73
2019-05-06T08:36:11.484Z,1.40
2019-05-06T08:38:53.193Z,2.13
2019-05-06T08:41:24.701Z,1.83
2019-05-06T08:43:57.905Z,1.63
2019-05-06T08:46:28.893Z,1.50
2019-05-06T08:49:03.217Z,1.27
2019-05-06T08:51:45.682Z,1.03
2019-05-06T08:54:28.089Z,1.37
2019-05-06T08:56:59.337Z,1.30
2019-05-06T08:59:31.917Z,1.57
2019-05-06T09:02:03.138Z,1.30
2019-05-06T09:04:33.693Z,1.17
2019-05-06T09:07:04.026Z,1.00
2019-05-06T09:09:34.557Z,1.00
2019-05-06T09:12:04.982Z,1.10
2019-05-06T09:14:36.470Z,1.30
2019-05-06T09:17:08.173Z,1.50
2019-05-06T09:19:38.961Z,1.40
2019-05-06T09:22:09.481Z,1.30
2019-05-06T09:24:39.893Z,1.20
2019-05-06T09:27:14.218Z,1.37
2019-05-06T09:29:56.096Z,2.20
2019-05-06T09:32:35.641Z,2.17
2019-05-06T09:35:04.538Z,1.80
2019-05-06T09:37:34.915Z,1.37
2019-05-06T09:40:07.614Z,1.47
2019-05-06T09:42:47.705Z,1.60
2019-05-06T09:45:18.460Z,1.23
2019-05-06T09:48:12.650Z,1.63
2019-05-06T09:50:46.424Z,1.20
2019-05-06T09:53:33.573Z,1.17
2019-05-06T09:56:18.009Z,1.30
2019-05-06T09:58:47.801Z,1.80
2019-05-06T10:01:22.374Z,1.30
2019-05-06T10:03:52.927Z,1.50
2019-05-06T10:06:22.830Z,1.37
2019-05-06T10:08:53.228Z,1.20
2019-05-06T10:11:24.318Z,1.00
2019-05-06T10:13:55.930Z,1.37
2019-05-06T10:16:27.056Z,1.00
2019-05-06T10:18:58.085Z,1.30
2019-05-06T10:21:28.565Z,1.30
2019-05-06T10:23:59.346Z,1.30
2019-05-06T10:26:32.624Z,1.17
2019-05-06T10:29:22.278Z,1.30
2019-05-06T10:32:03.814Z,0.97
2019-05-06T10:34:35.057Z,1.10
2019-05-06T10:37:18.765Z,1.10
2019-05-06T10:39:47.037Z,1.13
2019-05-06T10:42:19.398Z,1.30
2019-05-06T10:44:57.618Z,1.33
2019-05-06T10:47:29.146Z,1.50
2019-05-06T10:49:59.459Z,1.60
2019-05-06T10:52:34.586Z,1.70
2019-05-06T10:55:05.589Z,1.63
2019-05-06T10:57:45.522Z,1.73
2019-05-06T11:00:19.687Z,1.60
2019-05-06T11:03:17.240Z,1.97
2019-05-06T11:05:48.734Z,1.67
2019-05-06T11:08:19.134Z,2.07
2019-05-06T11:10:50.118Z,1.90
2019-05-06T11:13:21.049Z,1.60
2019-05-06T11:15:55.232Z,1.83
2019-05-06T11:18:23.909Z,1.87
2019-05-06T11:20:56.348Z,1.70
2019-05-06T11:23:26.457Z,1.93
2019-05-06T11:25:58.355Z,1.90
2019-05-06T11:29:05.226Z,1.60
2019-05-06T11:32:10.242Z,1.90
2019-05-06T11:34:59.833Z,2.03
2019-05-06T11:37:54.335Z,1.93
2019-05-06T11:40:24.397Z,2.20
2019-05-06T11:42:54.804Z,2.23
2019-05-06T11:45:24.737Z,2.43
2019-05-06T11:47:56.017Z,2.77
2019-05-06T11:50:26.289Z,2.23
2019-05-06T11:52:57.649Z,1.80
2019-05-06T11:55:32.724Z,1.93
2019-05-06T11:58:02.792Z,2.13
2019-05-06T12:00:38.513Z,2.20
2019-05-06T12:03:09.369Z,2.47
2019-05-06T12:05:39.361Z,2.00
2019-05-06T12:08:13.138Z,2.33
2019-05-06T12:10:42.649Z,2.53
2019-05-06T12:13:15.509Z,2.53
2019-05-06T12:15:47.995Z,2.30
2019-05-06T12:18:17.935Z,2.10
2019-05-06T12:20:48.166Z,2.43
2019-05-06T12:23:19.333Z,2.40
2019-05-06T12:25:52.928Z,2.13
2019-05-06T12:28:23.094Z,2.07
2019-05-06T12:30:53.777Z,2.03
2019-05-06T12:33:36.732Z,2.10
2019-05-06T12:36:26.396Z,2.20
2019-05-06T12:39:17.071Z,2.80
2019-05-06T12:42:14.617Z,2.40
2019-05-06T12:45:03.868Z,2.03
2019-05-06T12:47:38.507Z,2.67
2019-05-06T12:50:09.087Z,1.70
2019-05-06T12:52:44.190Z,1.97
2019-05-06T12:55:21.677Z,2.17
2019-05-06T12:57:52.829Z,1.90
2019-05-06T13:00:23.548Z,2.47
2019-05-06T13:02:53.612Z,1.90
2019-05-06T13:05:27.101Z,1.90
2019-05-06T13:07:59.069Z,2.27
2019-05-06T13:10:29.365Z,2.13
2019-05-06T13:13:09.438Z,1.63
2019-05-06T13:15:40.160Z,2.10
2019-05-06T13:18:11.489Z,2.10
2019-05-06T13:20:50.048Z,2.00
2019-05-06T13:23:37.037Z,1.80
2019-05-06T13:26:08.917Z,1.90
2019-05-06T13:28:43.172Z,2.00
2019-05-06T13:31:20.839Z,2.07
2019-05-06T13:34:23.572Z,1.87
2019-05-06T13:36:54.089Z,1.90
2019-05-06T13:39:25.049Z,2.07
2019-05-06T13:41:54.986Z,1.97
2019-05-06T13:44:28.769Z,1.80
2019-05-06T13:46:59.284Z,2.03
2019-05-06T13:49:48.437Z,2.27
2019-05-06T13:52:25.674Z,1.70
2019-05-06T13:54:58.710Z,2.10
2019-05-06T13:57:29.190Z,2.10
2019-05-06T14:00:03.058Z,1.83
2019-05-06T14:02:57.345Z,2.00
2019-05-06T14:05:38.845Z,1.73
2019-05-06T14:08:09.846Z,1.30
2019-05-06T14:10:42.344Z,1.60
2019-05-06T14:13:14.389Z,2.00
2019-05-06T14:15:44.721Z,2.00
2019-05-06T14:18:15.825Z,1.90
2019-05-06T14:20:46.237Z,1.77
2019-05-06T14:23:16.601Z,1.70
2019-05-06T14:26:17.381Z,1.70
2019-05-06T14:28:55.154Z,2.30
2019-05-06T14:31:32.512Z,1.77
2019-05-06T14:34:02.246Z,1.70
2019-05-06T14:36:32.928Z,1.80
2019-05-06T14:39:05.745Z,1.40
2019-05-06T14:41:37.304Z,2.30
2019-05-06T14:44:12.213Z,1.90
2019-05-06T14:47:00.874Z,1.50
2019-05-06T14:49:32.684Z,1.70
2019-05-06T14:52:02.937Z,2.20
2019-05-06T14:54:33.306Z,1.83
2019-05-06T14:57:13.605Z,1.70
2019-05-06T14:59:44.589Z,2.00
2019-05-06T15:02:16.184Z,1.97
2019-05-06T15:04:45.825Z,1.53
2019-05-06T15:07:16.185Z,1.70
2019-05-06T15:09:58.478Z,1.63
2019-05-06T15:12:22.903Z,1.47
2019-05-06T15:14:52.967Z,1.30
2019-05-06T15:17:26.146Z,1.50
2019-05-06T15:20:07.938Z,1.53
2019-05-06T15:22:42.103Z,1.87
2019-05-06T15:25:12.964Z,2.00
2019-05-06T15:27:44.415Z,1.70
2019-05-06T15:30:23.015Z,1.50
2019-05-06T15:32:54.009Z,1.50
2019-05-06T15:35:42.445Z,1.80
2019-05-06T15:38:17.312Z,1.63
2019-05-06T15:40:52.245Z,1.80
2019-05-06T15:43:22.938Z,1.70
2019-05-06T15:45:54.253Z,1.60
2019-05-06T15:48:47.185Z,1.50
2019-05-06T15:51:29.637Z,1.80
2019-05-06T15:53:59.877Z,1.73
2019-05-06T15:56:32.775Z,1.53
2019-05-06T15:59:04.350Z,3.13
2019-05-06T16:01:34.446Z,1.80
2019-05-06T16:04:04.926Z,1.40
2019-05-06T16:06:35.990Z,2.47
2019-05-06T16:09:14.190Z,1.63
2019-05-06T16:11:44.713Z,1.50
2019-05-06T16:14:15.223Z,1.10
2019-05-06T16:16:45.725Z,1.30
2019-05-06T16:19:17.175Z,1.40
2019-05-06T16:21:47.654Z,1.30
2019-05-06T16:24:22.672Z,1.30
2019-05-06T16:26:54.097Z,1.40
2019-05-06T16:29:36.541Z,1.30
2019-05-06T16:32:07.102Z,1.40
2019-05-06T16:34:37.553Z,1.50
2019-05-06T16:37:09.573Z,2.27
2019-05-06T16:39:39.933Z,2.30
2019-05-06T16:42:12.873Z,2.10
2019-05-06T16:44:45.146Z,2.10
2019-05-06T16:47:33.970Z,2.30
2019-05-06T16:50:05.000Z,3.80
2019-05-06T16:52:36.990Z,2.23
2019-05-06T16:55:09.673Z,1.47
2019-05-06T16:57:39.993Z,1.57
2019-05-06T17:00:22.572Z,1.90
2019-05-06T17:03:11.686Z,2.10
2019-05-06T17:06:05.197Z,1.30
2019-05-06T17:08:37.273Z,1.60
2019-05-06T17:11:07.710Z,1.70
2019-05-06T17:13:38.003Z,1.60
2019-05-06T17:16:08.333Z,1.90
2019-05-06T17:18:38.682Z,1.53
2019-05-06T17:21:09.394Z,2.03
2019-05-06T17:23:42.396Z,1.90
2019-05-06T17:26:13.403Z,1.60
2019-05-06T17:29:02.778Z,1.77
2019-05-06T17:31:47.764Z,1.80
2019-05-06T17:34:22.965Z,1.80
2019-05-06T17:36:55.693Z,1.60
2019-05-06T17:39:26.144Z,1.70
2019-05-06T17:41:57.592Z,1.37
2019-05-06T17:44:34.165Z,1.33
2019-05-06T17:47:22.825Z,1.50
2019-05-06T17:49:53.455Z,1.57
2019-05-06T17:52:23.694Z,1.67
2019-05-06T17:54:54.163Z,1.70
2019-05-06T17:57:24.566Z,1.30
2019-05-06T17:59:55.994Z,1.30
2019-05-06T18:02:27.173Z,1.37
2019-05-06T18:04:57.162Z,1.63
2019-05-06T18:07:28.197Z,1.70
2019-05-06T18:09:58.181Z,1.53
2019-05-06T18:12:28.537Z,1.70
2019-05-06T18:14:58.947Z,1.47
2019-05-06T18:17:33.008Z,1.37
2019-05-06T18:20:03.052Z,1.57
2019-05-06T18:22:34.883Z,1.70
2019-05-06T18:25:05.565Z,2.00
2019-05-06T18:27:36.025Z,1.70
2019-05-06T18:30:19.311Z,1.47
2019-05-06T18:32:42.335Z,2.97
2019-05-06T18:35:14.937Z,2.50
2019-05-06T18:37:44.866Z,1.70
2019-05-06T18:40:15.834Z,1.57
2019-05-06T18:42:46.457Z,1.50
2019-05-06T18:45:17.227Z,1.83
2019-05-06T18:47:47.693Z,1.87
2019-05-06T18:50:22.038Z,2.13
2019-05-06T18:52:53.032Z,2.10
2019-05-06T18:55:23.925Z,1.57
2019-05-06T18:57:58.629Z,3.37
2019-05-06T19:00:29.017Z,2.70
2019-05-06T19:02:58.929Z,3.70
2019-05-06T19:05:35.510Z,4.00
2019-05-06T19:08:08.817Z,2.00
2019-05-06T19:10:39.272Z,1.40
2019-05-06T19:13:10.173Z,1.67
2019-05-06T19:15:41.206Z,1.30
2019-05-06T19:18:12.911Z,1.50
2019-05-06T19:20:42.994Z,1.37
2019-05-06T19:23:14.675Z,1.60
2019-05-06T19:25:44.997Z,2.00
2019-05-06T19:28:17.403Z,1.53
2019-05-06T19:30:48.241Z,1.40
2019-05-06T19:33:18.634Z,1.70
2019-05-06T19:35:52.163Z,1.73
2019-05-06T19:38:24.573Z,1.60
2019-05-06T19:40:54.522Z,1.60
2019-05-06T19:43:24.890Z,1.80
2019-05-06T19:45:56.308Z,1.53
2019-05-06T19:48:28.677Z,1.47
2019-05-06T19:50:58.577Z,1.43
2019-05-06T19:53:29.051Z,1.50
2019-05-06T19:56:12.227Z,1.50
2019-05-06T19:58:42.944Z,1.30
2019-05-06T20:01:22.887Z,1.40
2019-05-06T20:03:54.574Z,1.70
2019-05-06T20:06:43.721Z,1.50
2019-05-06T20:09:33.055Z,1.30
2019-05-06T20:12:06.201Z,1.53
2019-05-06T20:14:41.879Z,1.30
2019-05-06T20:17:12.987Z,1.23
2019-05-06T20:19:43.027Z,1.07
2019-05-06T20:22:13.937Z,1.30
2019-05-06T20:24:47.832Z,1.30
2019-05-06T20:27:18.455Z,1.47
2019-05-06T20:29:52.297Z,1.10
2019-05-06T20:32:23.772Z,1.20
2019-05-06T20:34:54.812Z,1.17
2019-05-06T20:37:25.241Z,1.30
2019-05-06T20:39:57.117Z,1.00
2019-05-06T20:42:27.130Z,1.20
2019-05-06T20:44:58.078Z,1.40
2019-05-06T20:47:27.953Z,1.30
2019-05-06T20:49:58.233Z,1.00
2019-05-06T20:52:30.498Z,1.30
2019-05-06T20:55:02.903Z,1.20
2019-05-06T20:57:34.597Z,1.43
2019-05-06T21:00:07.306Z,1.10
2019-05-06T21:02:38.043Z,1.27
2019-05-06T21:05:10.758Z,1.30
2019-05-06T21:07:43.283Z,1.10
2019-05-06T21:10:15.609Z,1.10
2019-05-06T21:12:47.129Z,1.33
2019-05-06T21:15:17.478Z,1.33
2019-05-06T21:17:49.403Z,0.90
2019-05-06T21:20:20.804Z,1.23
2019-05-06T21:22:52.767Z,1.27
2019-05-06T21:25:34.943Z,1.10
2019-05-06T21:28:05.741Z,1.40
2019-05-06T21:30:36.813Z,0.97
2019-05-06T21:33:07.226Z,1.20
2019-05-06T21:35:37.690Z,1.30
2019-05-06T21:38:12.143Z,1.00
2019-05-06T21:40:46.104Z,0.90
2019-05-06T21:43:17.106Z,1.03
2019-05-06T21:45:47.577Z,1.00
2019-05-06T21:48:17.994Z,1.20
2019-05-06T21:50:49.238Z,1.00
2019-05-06T21:53:24.249Z,1.20
2019-05-06T21:55:55.184Z,1.00
2019-05-06T21:58:26.133Z,0.90
2019-05-06T22:01:04.079Z,0.90
2019-05-06T22:03:36.658Z,1.00
2019-05-06T22:06:09.242Z,1.20
2019-05-06T22:08:39.745Z,1.17
2019-05-06T22:11:12.657Z,1.20
2019-05-06T22:13:57.004Z,1.00
2019-05-06T22:16:16.117Z,1.07
2019-05-06T22:18:48.793Z,0.77
2019-05-06T22:21:22.641Z,1.03
2019-05-06T22:23:54.734Z,1.00
2019-05-06T22:26:24.669Z,0.90
2019-05-06T22:28:54.570Z,1.10
2019-05-06T22:31:25.974Z,1.20
2019-05-06T22:33:56.441Z,0.97
2019-05-06T22:36:28.246Z,0.90
2019-05-06T22:38:59.157Z,0.90
2019-05-06T22:41:32.490Z,1.07
2019-05-06T22:44:12.638Z,0.73
2019-05-06T22:46:35.819Z,1.30
2019-05-06T22:49:06.261Z,0.80
2019-05-06T22:51:36.526Z,1.00
2019-05-06T22:54:08.370Z,0.93
2019-05-06T22:56:38.841Z,1.20
2019-05-06T22:59:12.724Z,0.93
2019-05-06T23:02:13.018Z,1.00
2019-05-06T23:04:43.147Z,1.30
2019-05-06T23:07:14.264Z,1.33
2019-05-06T23:09:45.465Z,1.30
2019-05-06T23:12:15.449Z,1.30
2019-05-06T23:14:46.397Z,1.10
2019-05-06T23:17:17.145Z,1.07
2019-05-06T23:19:47.605Z,1.00
2019-05-06T23:22:17.973Z,1.20
2019-05-06T23:24:48.881Z,1.03
2019-05-06T23:27:23.283Z,1.00
2019-05-06T23:29:54.230Z,1.63
2019-05-06T23:32:26.337Z,1.00
2019-05-06T23:34:58.161Z,1.00
2019-05-06T23:37:27.456Z,1.10
2019-05-06T23:40:17.525Z,1.10
2019-05-06T23:43:05.305Z,1.30
2019-05-06T23:45:54.368Z,1.10
2019-05-06T23:48:42.984Z,1.00
2019-05-06T23:51:33.080Z,1.10
2019-05-06T23:54:22.072Z,1.00
2019-05-06T23:56:52.125Z,1.00
2019-05-06T23:59:22.556Z,1.43
